sensor_id;sensor_type;location;lat;lon;timestamp;P1;durP1;ratioP1;P2;durP2;ratioP2
18224;SDS011;9237;48.590;8.854;2023-05-27T00:00:40;0.70;;;0.70;;
18224;SDS011;9237;48.590;8.854;2023-05-27T00:03:07;0.70;;;0.70;;
18224;SDS011;9237;48.590;8.854;2023-05-27T00:05:35;0.70;;;0.70;;
18224;SDS011;9237;48.590;8.854;2023-05-27T00:08:02;0.70;;;0.70;;
18224;SDS011;9237;48.590;8.854;2023-05-27T00:10:29;0.70;;;0.70;;
18224;SDS011;9237;48.590;8.854;2023-05-27T00:12:56;0.70;;;0.70;;
18224;SDS011;9237;48.590;8.854;2023-05-27T00:15:23;0.70;;;0.70;;
18224;SDS011;9237;48.590;8.854;2023-05-27T00:17:49;0.70;;;0.70;;
18224;SDS011;9237;48.590;8.854;2023-05-27T00:20:16;0.70;;;0.70;;
18224;SDS011;9237;48.590;8.854;2023-05-27T00:22:46;0.70;;;0.70;;
18224;SDS011;9237;48.590;8.854;2023-05-27T00:25:14;0.70;;;0.70;;
18224;SDS011;9237;48.590;8.854;2023-05-27T00:27:41;0.70;;;0.70;;
18224;SDS011;9237;48.590;8.854;2023-05-27T00:30:09;0.70;;;0.70;;
18224;SDS011;9237;48.590;8.854;2023-05-27T00:32:36;0.70;;;0.70;;
18224;SDS011;9237;48.590;8.854;2023-05-27T00:35:03;0.60;;;0.60;;
18224;SDS011;9237;48.590;8.854;2023-05-27T00:37:30;0.70;;;0.70;;
18224;SDS011;9237;48.590;8.854;2023-05-27T00:39:58;0.63;;;0.63;;
18224;SDS011;9237;48.590;8.854;2023-05-27T00:42:25;0.60;;;0.60;;
18224;SDS011;9237;48.590;8.854;2023-05-27T00:44:52;0.60;;;0.60;;
18224;SDS011;9237;48.590;8.854;2023-05-27T00:47:19;0.70;;;0.70;;
18224;SDS011;9237;48.590;8.854;2023-05-27T00:49:46;0.70;;;0.70;;
18224;SDS011;9237;48.590;8.854;2023-05-27T00:52:14;0.63;;;0.63;;
18224;SDS011;9237;48.590;8.854;2023-05-27T00:54:40;0.70;;;0.70;;
18224;SDS011;9237;48.590;8.854;2023-05-27T00:57:09;0.70;;;0.70;;
18224;SDS011;9237;48.590;8.854;2023-05-27T00:59:36;0.70;;;0.70;;
18224;SDS011;9237;48.590;8.854;2023-05-27T01:02:03;0.70;;;0.70;;
18224;SDS011;9237;48.590;8.854;2023-05-27T01:04:31;0.70;;;0.70;;
18224;SDS011;9237;48.590;8.854;2023-05-27T01:06:58;0.70;;;0.70;;
18224;SDS011;9237;48.590;8.854;2023-05-27T01:09:35;0.70;;;0.70;;
18224;SDS011;9237;48.590;8.854;2023-05-27T01:12:07;0.70;;;0.70;;
18224;SDS011;9237;48.590;8.854;2023-05-27T01:14:38;0.70;;;0.70;;
18224;SDS011;9237;48.590;8.854;2023-05-27T01:17:09;0.70;;;0.70;;
18224;SDS011;9237;48.590;8.854;2023-05-27T01:19:38;0.70;;;0.70;;
18224;SDS011;9237;48.590;8.854;2023-05-27T01:22:07;0.70;;;0.70;;
18224;SDS011;9237;48.590;8.854;2023-05-27T01:24:39;0.70;;;0.70;;
18224;SDS011;9237;48.590;8.854;2023-05-27T01:27:07;0.70;;;0.70;;
18224;SDS011;9237;48.590;8.854;2023-05-27T01:29:37;0.70;;;0.70;;
18224;SDS011;9237;48.590;8.854;2023-05-27T01:32:06;0.80;;;0.80;;
18224;SDS011;9237;48.590;8.854;2023-05-27T01:34:40;0.63;;;0.63;;
18224;SDS011;9237;48.590;8.854;2023-05-27T01:37:16;0.70;;;0.70;;
18224;SDS011;9237;48.590;8.854;2023-05-27T01:39:49;0.70;;;0.70;;
18224;SDS011;9237;48.590;8.854;2023-05-27T01:42:17;0.70;;;0.70;;
18224;SDS011;9237;48.590;8.854;2023-05-27T01:44:45;0.70;;;0.70;;
18224;SDS011;9237;48.590;8.854;2023-05-27T01:47:12;0.70;;;0.70;;
18224;SDS011;9237;48.590;8.854;2023-05-27T01:49:39;0.70;;;0.70;;
18224;SDS011;9237;48.590;8.854;2023-05-27T01:52:06;0.80;;;0.80;;
18224;SDS011;9237;48.590;8.854;2023-05-27T01:54:33;0.70;;;0.70;;
18224;SDS011;9237;48.590;8.854;2023-05-27T01:57:02;0.70;;;0.70;;
18224;SDS011;9237;48.590;8.854;2023-05-27T01:59:30;0.70;;;0.70;;
18224;SDS011;9237;48.590;8.854;2023-05-27T02:01:57;0.60;;;0.60;;
18224;SDS011;9237;48.590;8.854;2023-05-27T02:04:23;0.70;;;0.70;;
18224;SDS011;9237;48.590;8.854;2023-05-27T02:06:50;0.70;;;0.70;;
18224;SDS011;9237;48.590;8.854;2023-05-27T02:09:17;0.70;;;0.70;;
18224;SDS011;9237;48.590;8.854;2023-05-27T02:11:45;0.70;;;0.70;;
18224;SDS011;9237;48.590;8.854;2023-05-27T02:14:13;0.70;;;0.70;;
18224;SDS011;9237;48.590;8.854;2023-05-27T02:16:40;0.70;;;0.70;;
18224;SDS011;9237;48.590;8.854;2023-05-27T02:19:07;0.60;;;0.60;;
18224;SDS011;9237;48.590;8.854;2023-05-27T02:21:34;0.70;;;0.70;;
18224;SDS011;9237;48.590;8.854;2023-05-27T02:24:01;0.70;;;0.70;;
18224;SDS011;9237;48.590;8.854;2023-05-27T02:26:28;0.70;;;0.70;;
18224;SDS011;9237;48.590;8.854;2023-05-27T02:28:54;0.70;;;0.70;;
18224;SDS011;9237;48.590;8.854;2023-05-27T02:31:22;0.70;;;0.70;;
18224;SDS011;9237;48.590;8.854;2023-05-27T02:33:50;0.70;;;0.70;;
18224;SDS011;9237;48.590;8.854;2023-05-27T02:36:16;0.70;;;0.70;;
18224;SDS011;9237;48.590;8.854;2023-05-27T02:38:46;0.70;;;0.70;;
18224;SDS011;9237;48.590;8.854;2023-05-27T02:41:12;0.70;;;0.70;;
18224;SDS011;9237;48.590;8.854;2023-05-27T02:43:39;0.70;;;0.70;;
18224;SDS011;9237;48.590;8.854;2023-05-27T02:46:06;0.80;;;0.80;;
18224;SDS011;9237;48.590;8.854;2023-05-27T02:48:34;0.73;;;0.73;;
18224;SDS011;9237;48.590;8.854;2023-05-27T02:51:01;0.80;;;0.80;;
18224;SDS011;9237;48.590;8.854;2023-05-27T02:53:28;0.80;;;0.80;;
18224;SDS011;9237;48.590;8.854;2023-05-27T02:55:54;0.70;;;0.70;;
18224;SDS011;9237;48.590;8.854;2023-05-27T02:58:21;0.70;;;0.70;;
18224;SDS011;9237;48.590;8.854;2023-05-27T03:00:48;0.70;;;0.70;;
18224;SDS011;9237;48.590;8.854;2023-05-27T03:03:15;0.73;;;0.73;;
18224;SDS011;9237;48.590;8.854;2023-05-27T03:05:43;0.80;;;0.80;;
18224;SDS011;9237;48.590;8.854;2023-05-27T03:08:10;0.70;;;0.70;;
18224;SDS011;9237;48.590;8.854;2023-05-27T03:10:36;0.70;;;0.70;;
18224;SDS011;9237;48.590;8.854;2023-05-27T03:13:03;0.70;;;0.70;;
18224;SDS011;9237;48.590;8.854;2023-05-27T03:15:30;0.70;;;0.70;;
18224;SDS011;9237;48.590;8.854;2023-05-27T03:17:57;0.70;;;0.70;;
18224;SDS011;9237;48.590;8.854;2023-05-27T03:20:24;0.70;;;0.70;;
18224;SDS011;9237;48.590;8.854;2023-05-27T03:22:52;0.80;;;0.80;;
18224;SDS011;9237;48.590;8.854;2023-05-27T03:25:20;0.70;;;0.70;;
18224;SDS011;9237;48.590;8.854;2023-05-27T03:27:46;0.80;;;0.80;;
18224;SDS011;9237;48.590;8.854;2023-05-27T03:30:13;0.73;;;0.73;;
18224;SDS011;9237;48.590;8.854;2023-05-27T03:32:40;0.70;;;0.70;;
18224;SDS011;9237;48.590;8.854;2023-05-27T03:35:07;0.80;;;0.80;;
18224;SDS011;9237;48.590;8.854;2023-05-27T03:37:34;0.70;;;0.70;;
18224;SDS011;9237;48.590;8.854;2023-05-27T03:40:03;0.70;;;0.70;;
18224;SDS011;9237;48.590;8.854;2023-05-27T03:42:30;0.80;;;0.80;;
18224;SDS011;9237;48.590;8.854;2023-05-27T03:44:57;0.70;;;0.70;;
18224;SDS011;9237;48.590;8.854;2023-05-27T03:47:24;0.70;;;0.70;;
18224;SDS011;9237;48.590;8.854;2023-05-27T03:49:51;0.80;;;0.80;;
18224;SDS011;9237;48.590;8.854;2023-05-27T03:52:18;0.70;;;0.70;;
18224;SDS011;9237;48.590;8.854;2023-05-27T03:54:45;0.70;;;0.70;;
18224;SDS011;9237;48.590;8.854;2023-05-27T03:57:13;0.77;;;0.77;;
18224;SDS011;9237;48.590;8.854;2023-05-27T03:59:41;0.80;;;0.80;;
18224;SDS011;9237;48.590;8.854;2023-05-27T04:02:07;0.90;;;0.90;;
18224;SDS011;9237;48.590;8.854;2023-05-27T04:04:34;0.70;;;0.70;;
18224;SDS011;9237;48.590;8.854;2023-05-27T04:07:01;0.80;;;0.80;;
18224;SDS011;9237;48.590;8.854;2023-05-27T04:09:28;0.80;;;0.80;;
18224;SDS011;9237;48.590;8.854;2023-05-27T04:11:55;0.73;;;0.73;;
18224;SDS011;9237;48.590;8.854;2023-05-27T04:14:23;0.80;;;0.80;;
18224;SDS011;9237;48.590;8.854;2023-05-27T04:16:50;0.70;;;0.70;;
18224;SDS011;9237;48.590;8.854;2023-05-27T04:19:17;0.70;;;0.70;;
18224;SDS011;9237;48.590;8.854;2023-05-27T04:21:44;0.80;;;0.80;;
18224;SDS011;9237;48.590;8.854;2023-05-27T04:24:11;0.80;;;0.80;;
18224;SDS011;9237;48.590;8.854;2023-05-27T04:26:37;0.80;;;0.80;;
18224;SDS011;9237;48.590;8.854;2023-05-27T04:29:06;0.80;;;0.80;;
18224;SDS011;9237;48.590;8.854;2023-05-27T04:31:35;0.70;;;0.70;;
18224;SDS011;9237;48.590;8.854;2023-05-27T04:34:02;0.80;;;0.80;;
18224;SDS011;9237;48.590;8.854;2023-05-27T04:36:29;0.80;;;0.80;;
18224;SDS011;9237;48.590;8.854;2023-05-27T04:38:59;0.80;;;0.80;;
18224;SDS011;9237;48.590;8.854;2023-05-27T04:41:27;0.77;;;0.77;;
18224;SDS011;9237;48.590;8.854;2023-05-27T04:43:54;0.70;;;0.70;;
18224;SDS011;9237;48.590;8.854;2023-05-27T04:46:23;0.70;;;0.70;;
18224;SDS011;9237;48.590;8.854;2023-05-27T04:48:51;0.70;;;0.70;;
18224;SDS011;9237;48.590;8.854;2023-05-27T04:51:18;0.70;;;0.70;;
18224;SDS011;9237;48.590;8.854;2023-05-27T04:53:45;0.80;;;0.80;;
18224;SDS011;9237;48.590;8.854;2023-05-27T04:56:13;0.80;;;0.80;;
18224;SDS011;9237;48.590;8.854;2023-05-27T04:58:40;0.80;;;0.80;;
18224;SDS011;9237;48.590;8.854;2023-05-27T05:01:08;0.70;;;0.70;;
18224;SDS011;9237;48.590;8.854;2023-05-27T05:03:42;0.70;;;0.70;;
18224;SDS011;9237;48.590;8.854;2023-05-27T05:06:18;0.73;;;0.73;;
18224;SDS011;9237;48.590;8.854;2023-05-27T05:08:46;0.70;;;0.70;;
18224;SDS011;9237;48.590;8.854;2023-05-27T05:11:13;0.70;;;0.70;;
18224;SDS011;9237;48.590;8.854;2023-05-27T05:13:40;0.70;;;0.70;;
18224;SDS011;9237;48.590;8.854;2023-05-27T05:16:07;0.70;;;0.70;;
18224;SDS011;9237;48.590;8.854;2023-05-27T05:18:33;0.70;;;0.70;;
18224;SDS011;9237;48.590;8.854;2023-05-27T05:21:00;0.70;;;0.70;;
18224;SDS011;9237;48.590;8.854;2023-05-27T05:23:28;0.70;;;0.70;;
18224;SDS011;9237;48.590;8.854;2023-05-27T05:25:55;0.80;;;0.80;;
18224;SDS011;9237;48.590;8.854;2023-05-27T05:28:30;0.70;;;0.70;;
18224;SDS011;9237;48.590;8.854;2023-05-27T05:30:58;0.70;;;0.70;;
18224;SDS011;9237;48.590;8.854;2023-05-27T05:33:24;0.70;;;0.70;;
18224;SDS011;9237;48.590;8.854;2023-05-27T05:35:51;0.70;;;0.70;;
18224;SDS011;9237;48.590;8.854;2023-05-27T05:38:18;0.70;;;0.70;;
18224;SDS011;9237;48.590;8.854;2023-05-27T05:40:46;0.70;;;0.70;;
18224;SDS011;9237;48.590;8.854;2023-05-27T05:43:17;0.70;;;0.70;;
18224;SDS011;9237;48.590;8.854;2023-05-27T05:45:44;0.70;;;0.70;;
18224;SDS011;9237;48.590;8.854;2023-05-27T05:48:11;0.70;;;0.70;;
18224;SDS011;9237;48.590;8.854;2023-05-27T05:50:37;0.90;;;0.90;;
18224;SDS011;9237;48.590;8.854;2023-05-27T05:53:04;0.70;;;0.70;;
18224;SDS011;9237;48.590;8.854;2023-05-27T05:55:31;0.70;;;0.70;;
18224;SDS011;9237;48.590;8.854;2023-05-27T05:57:59;0.70;;;0.70;;
18224;SDS011;9237;48.590;8.854;2023-05-27T06:00:26;0.70;;;0.70;;
18224;SDS011;9237;48.590;8.854;2023-05-27T06:02:54;0.80;;;0.80;;
18224;SDS011;9237;48.590;8.854;2023-05-27T06:05:20;0.70;;;0.70;;
18224;SDS011;9237;48.590;8.854;2023-05-27T06:07:50;0.70;;;0.70;;
18224;SDS011;9237;48.590;8.854;2023-05-27T06:10:17;0.70;;;0.70;;
18224;SDS011;9237;48.590;8.854;2023-05-27T06:12:45;0.70;;;0.70;;
18224;SDS011;9237;48.590;8.854;2023-05-27T06:15:13;0.70;;;0.70;;
18224;SDS011;9237;48.590;8.854;2023-05-27T06:17:40;0.70;;;0.70;;
18224;SDS011;9237;48.590;8.854;2023-05-27T06:20:07;0.70;;;0.70;;
18224;SDS011;9237;48.590;8.854;2023-05-27T06:22:34;0.70;;;0.70;;
18224;SDS011;9237;48.590;8.854;2023-05-27T06:25:01;0.70;;;0.70;;
18224;SDS011;9237;48.590;8.854;2023-05-27T06:27:27;0.70;;;0.70;;
18224;SDS011;9237;48.590;8.854;2023-05-27T06:29:54;0.60;;;0.60;;
18224;SDS011;9237;48.590;8.854;2023-05-27T06:32:23;0.60;;;0.60;;
18224;SDS011;9237;48.590;8.854;2023-05-27T06:34:50;0.70;;;0.70;;
18224;SDS011;9237;48.590;8.854;2023-05-27T06:37:17;0.70;;;0.70;;
18224;SDS011;9237;48.590;8.854;2023-05-27T06:39:44;0.70;;;0.70;;
18224;SDS011;9237;48.590;8.854;2023-05-27T06:42:10;0.70;;;0.70;;
18224;SDS011;9237;48.590;8.854;2023-05-27T06:44:37;0.70;;;0.70;;
18224;SDS011;9237;48.590;8.854;2023-05-27T06:47:04;0.60;;;0.60;;
18224;SDS011;9237;48.590;8.854;2023-05-27T06:49:32;0.60;;;0.60;;
18224;SDS011;9237;48.590;8.854;2023-05-27T06:51:59;0.60;;;0.60;;
18224;SDS011;9237;48.590;8.854;2023-05-27T06:54:26;0.60;;;0.60;;
18224;SDS011;9237;48.590;8.854;2023-05-27T06:56:53;0.60;;;0.60;;
18224;SDS011;9237;48.590;8.854;2023-05-27T06:59:19;0.60;;;0.60;;
18224;SDS011;9237;48.590;8.854;2023-05-27T07:01:46;0.60;;;0.60;;
18224;SDS011;9237;48.590;8.854;2023-05-27T07:04:13;0.60;;;0.60;;
18224;SDS011;9237;48.590;8.854;2023-05-27T07:06:42;0.60;;;0.60;;
18224;SDS011;9237;48.590;8.854;2023-05-27T07:09:09;0.60;;;0.60;;
18224;SDS011;9237;48.590;8.854;2023-05-27T07:11:37;0.60;;;0.60;;
18224;SDS011;9237;48.590;8.854;2023-05-27T07:14:04;0.60;;;0.60;;
18224;SDS011;9237;48.590;8.854;2023-05-27T07:16:30;0.60;;;0.60;;
18224;SDS011;9237;48.590;8.854;2023-05-27T07:18:57;0.60;;;0.60;;
18224;SDS011;9237;48.590;8.854;2023-05-27T07:21:24;0.60;;;0.60;;
18224;SDS011;9237;48.590;8.854;2023-05-27T07:23:52;0.60;;;0.60;;
18224;SDS011;9237;48.590;8.854;2023-05-27T07:26:19;0.60;;;0.60;;
18224;SDS011;9237;48.590;8.854;2023-05-27T07:28:46;0.60;;;0.60;;
18224;SDS011;9237;48.590;8.854;2023-05-27T07:31:13;0.60;;;0.60;;
18224;SDS011;9237;48.590;8.854;2023-05-27T07:33:39;0.60;;;0.60;;
18224;SDS011;9237;48.590;8.854;2023-05-27T07:36:07;0.60;;;0.60;;
18224;SDS011;9237;48.590;8.854;2023-05-27T07:38:33;0.60;;;0.60;;
18224;SDS011;9237;48.590;8.854;2023-05-27T07:41:02;0.50;;;0.50;;
18224;SDS011;9237;48.590;8.854;2023-05-27T07:43:28;0.60;;;0.60;;
18224;SDS011;9237;48.590;8.854;2023-05-27T07:45:55;0.50;;;0.50;;
18224;SDS011;9237;48.590;8.854;2023-05-27T07:48:22;0.50;;;0.50;;
18224;SDS011;9237;48.590;8.854;2023-05-27T07:50:49;0.50;;;0.50;;
18224;SDS011;9237;48.590;8.854;2023-05-27T07:53:15;0.50;;;0.50;;
18224;SDS011;9237;48.590;8.854;2023-05-27T07:55:42;0.55;;;0.55;;
18224;SDS011;9237;48.590;8.854;2023-05-27T07:58:10;0.50;;;0.50;;
18224;SDS011;9237;48.590;8.854;2023-05-27T08:00:37;0.50;;;0.50;;
18224;SDS011;9237;48.590;8.854;2023-05-27T08:03:04;0.50;;;0.50;;
18224;SDS011;9237;48.590;8.854;2023-05-27T08:05:30;0.50;;;0.50;;
18224;SDS011;9237;48.590;8.854;2023-05-27T08:07:58;0.50;;;0.50;;
18224;SDS011;9237;48.590;8.854;2023-05-27T08:10:25;0.50;;;0.50;;
18224;SDS011;9237;48.590;8.854;2023-05-27T08:12:52;0.40;;;0.40;;
18224;SDS011;9237;48.590;8.854;2023-05-27T08:15:20;0.40;;;0.40;;
18224;SDS011;9237;48.590;8.854;2023-05-27T08:17:46;0.50;;;0.50;;
18224;SDS011;9237;48.590;8.854;2023-05-27T08:20:13;0.50;;;0.50;;
18224;SDS011;9237;48.590;8.854;2023-05-27T08:22:40;0.50;;;0.50;;
18224;SDS011;9237;48.590;8.854;2023-05-27T08:25:07;0.40;;;0.40;;
18224;SDS011;9237;48.590;8.854;2023-05-27T08:27:44;0.50;;;0.50;;
18224;SDS011;9237;48.590;8.854;2023-05-27T08:30:12;0.50;;;0.50;;
18224;SDS011;9237;48.590;8.854;2023-05-27T08:32:41;0.40;;;0.40;;
18224;SDS011;9237;48.590;8.854;2023-05-27T08:35:08;0.40;;;0.40;;
18224;SDS011;9237;48.590;8.854;2023-05-27T08:37:35;0.40;;;0.40;;
18224;SDS011;9237;48.590;8.854;2023-05-27T08:40:02;0.43;;;0.43;;
18224;SDS011;9237;48.590;8.854;2023-05-27T08:42:31;0.50;;;0.50;;
18224;SDS011;9237;48.590;8.854;2023-05-27T08:44:58;0.50;;;0.50;;
18224;SDS011;9237;48.590;8.854;2023-05-27T08:47:25;0.40;;;0.40;;
18224;SDS011;9237;48.590;8.854;2023-05-27T08:49:55;0.40;;;0.40;;
18224;SDS011;9237;48.590;8.854;2023-05-27T08:52:23;0.40;;;0.40;;
18224;SDS011;9237;48.590;8.854;2023-05-27T08:54:52;0.40;;;0.40;;
18224;SDS011;9237;48.590;8.854;2023-05-27T08:57:20;0.40;;;0.40;;
18224;SDS011;9237;48.590;8.854;2023-05-27T08:59:49;0.40;;;0.40;;
18224;SDS011;9237;48.590;8.854;2023-05-27T09:02:16;0.40;;;0.40;;
18224;SDS011;9237;48.590;8.854;2023-05-27T09:04:46;0.40;;;0.40;;
18224;SDS011;9237;48.590;8.854;2023-05-27T09:07:15;0.40;;;0.40;;
18224;SDS011;9237;48.590;8.854;2023-05-27T09:09:42;0.40;;;0.40;;
18224;SDS011;9237;48.590;8.854;2023-05-27T09:12:21;0.35;;;0.35;;
18224;SDS011;9237;48.590;8.854;2023-05-27T09:14:50;0.40;;;0.40;;
18224;SDS011;9237;48.590;8.854;2023-05-27T09:17:17;0.40;;;0.40;;
18224;SDS011;9237;48.590;8.854;2023-05-27T09:19:44;0.40;;;0.40;;
18224;SDS011;9237;48.590;8.854;2023-05-27T09:22:19;0.40;;;0.40;;
18224;SDS011;9237;48.590;8.854;2023-05-27T09:24:47;0.40;;;0.40;;
18224;SDS011;9237;48.590;8.854;2023-05-27T09:27:14;0.40;;;0.40;;
18224;SDS011;9237;48.590;8.854;2023-05-27T09:29:41;0.40;;;0.40;;
18224;SDS011;9237;48.590;8.854;2023-05-27T09:32:08;0.40;;;0.40;;
18224;SDS011;9237;48.590;8.854;2023-05-27T09:34:37;0.40;;;0.40;;
18224;SDS011;9237;48.590;8.854;2023-05-27T09:37:04;0.40;;;0.40;;
18224;SDS011;9237;48.590;8.854;2023-05-27T09:39:33;0.40;;;0.40;;
18224;SDS011;9237;48.590;8.854;2023-05-27T09:42:01;0.40;;;0.40;;
18224;SDS011;9237;48.590;8.854;2023-05-27T09:44:28;0.40;;;0.40;;
18224;SDS011;9237;48.590;8.854;2023-05-27T09:46:55;0.40;;;0.40;;
18224;SDS011;9237;48.590;8.854;2023-05-27T09:49:23;0.40;;;0.40;;
18224;SDS011;9237;48.590;8.854;2023-05-27T09:51:52;0.40;;;0.40;;
18224;SDS011;9237;48.590;8.854;2023-05-27T09:54:22;0.30;;;0.30;;
18224;SDS011;9237;48.590;8.854;2023-05-27T09:56:51;0.38;;;0.38;;
18224;SDS011;9237;48.590;8.854;2023-05-27T09:59:18;0.40;;;0.40;;
18224;SDS011;9237;48.590;8.854;2023-05-27T10:01:45;0.30;;;0.30;;
18224;SDS011;9237;48.590;8.854;2023-05-27T10:04:13;0.40;;;0.40;;
18224;SDS011;9237;48.590;8.854;2023-05-27T10:06:41;0.30;;;0.30;;
18224;SDS011;9237;48.590;8.854;2023-05-27T10:09:08;0.30;;;0.30;;
18224;SDS011;9237;48.590;8.854;2023-05-27T10:11:38;0.30;;;0.30;;
18224;SDS011;9237;48.590;8.854;2023-05-27T10:14:07;0.30;;;0.30;;
18224;SDS011;9237;48.590;8.854;2023-05-27T10:16:35;0.40;;;0.40;;
18224;SDS011;9237;48.590;8.854;2023-05-27T10:19:02;0.30;;;0.30;;
18224;SDS011;9237;48.590;8.854;2023-05-27T10:21:41;0.30;;;0.30;;
18224;SDS011;9237;48.590;8.854;2023-05-27T10:24:09;0.30;;;0.30;;
18224;SDS011;9237;48.590;8.854;2023-05-27T10:26:37;0.30;;;0.30;;
18224;SDS011;9237;48.590;8.854;2023-05-27T10:29:06;0.30;;;0.30;;
18224;SDS011;9237;48.590;8.854;2023-05-27T10:31:35;0.30;;;0.30;;
18224;SDS011;9237;48.590;8.854;2023-05-27T10:34:03;0.30;;;0.30;;
18224;SDS011;9237;48.590;8.854;2023-05-27T10:36:31;0.30;;;0.30;;
18224;SDS011;9237;48.590;8.854;2023-05-27T10:39:00;0.40;;;0.40;;
18224;SDS011;9237;48.590;8.854;2023-05-27T10:41:37;0.40;;;0.40;;
18224;SDS011;9237;48.590;8.854;2023-05-27T10:44:05;0.40;;;0.40;;
18224;SDS011;9237;48.590;8.854;2023-05-27T10:46:38;0.40;;;0.40;;
18224;SDS011;9237;48.590;8.854;2023-05-27T10:51:52;0.30;;;0.30;;
18224;SDS011;9237;48.590;8.854;2023-05-27T10:54:23;0.30;;;0.30;;
18224;SDS011;9237;48.590;8.854;2023-05-27T10:56:50;0.40;;;0.40;;
18224;SDS011;9237;48.590;8.854;2023-05-27T10:59:20;0.30;;;0.30;;
18224;SDS011;9237;48.590;8.854;2023-05-27T11:01:50;0.30;;;0.30;;
18224;SDS011;9237;48.590;8.854;2023-05-27T11:04:18;0.30;;;0.30;;
18224;SDS011;9237;48.590;8.854;2023-05-27T11:06:55;0.40;;;0.40;;
18224;SDS011;9237;48.590;8.854;2023-05-27T11:09:23;0.40;;;0.40;;
18224;SDS011;9237;48.590;8.854;2023-05-27T11:11:50;0.32;;;0.32;;
18224;SDS011;9237;48.590;8.854;2023-05-27T11:14:16;0.40;;;0.40;;
18224;SDS011;9237;48.590;8.854;2023-05-27T11:16:46;0.30;;;0.30;;
18224;SDS011;9237;48.590;8.854;2023-05-27T11:19:16;0.30;;;0.30;;
18224;SDS011;9237;48.590;8.854;2023-05-27T11:21:46;0.30;;;0.30;;
18224;SDS011;9237;48.590;8.854;2023-05-27T11:24:14;0.30;;;0.30;;
18224;SDS011;9237;48.590;8.854;2023-05-27T11:26:42;0.30;;;0.30;;
18224;SDS011;9237;48.590;8.854;2023-05-27T11:29:09;0.30;;;0.30;;
18224;SDS011;9237;48.590;8.854;2023-05-27T11:31:36;0.30;;;0.30;;
18224;SDS011;9237;48.590;8.854;2023-05-27T11:34:10;0.30;;;0.30;;
18224;SDS011;9237;48.590;8.854;2023-05-27T11:36:39;0.30;;;0.30;;
18224;SDS011;9237;48.590;8.854;2023-05-27T11:39:09;0.30;;;0.30;;
18224;SDS011;9237;48.590;8.854;2023-05-27T11:41:47;0.30;;;0.30;;
18224;SDS011;9237;48.590;8.854;2023-05-27T11:44:15;0.30;;;0.30;;
18224;SDS011;9237;48.590;8.854;2023-05-27T11:46:44;0.30;;;0.30;;
18224;SDS011;9237;48.590;8.854;2023-05-27T11:49:14;0.30;;;0.30;;
18224;SDS011;9237;48.590;8.854;2023-05-27T11:51:42;0.30;;;0.30;;
18224;SDS011;9237;48.590;8.854;2023-05-27T11:54:17;0.40;;;0.40;;
18224;SDS011;9237;48.590;8.854;2023-05-27T11:56:45;0.30;;;0.30;;
18224;SDS011;9237;48.590;8.854;2023-05-27T11:59:13;0.30;;;0.30;;
18224;SDS011;9237;48.590;8.854;2023-05-27T12:01:40;0.32;;;0.32;;
18224;SDS011;9237;48.590;8.854;2023-05-27T12:04:07;0.30;;;0.30;;
18224;SDS011;9237;48.590;8.854;2023-05-27T12:06:35;0.30;;;0.30;;
18224;SDS011;9237;48.590;8.854;2023-05-27T12:09:03;0.30;;;0.30;;
18224;SDS011;9237;48.590;8.854;2023-05-27T12:11:30;0.30;;;0.30;;
18224;SDS011;9237;48.590;8.854;2023-05-27T12:13:57;0.30;;;0.30;;
18224;SDS011;9237;48.590;8.854;2023-05-27T12:16:24;0.30;;;0.30;;
18224;SDS011;9237;48.590;8.854;2023-05-27T12:18:51;0.30;;;0.30;;
18224;SDS011;9237;48.590;8.854;2023-05-27T12:21:18;0.30;;;0.30;;
18224;SDS011;9237;48.590;8.854;2023-05-27T12:23:46;0.30;;;0.30;;
18224;SDS011;9237;48.590;8.854;2023-05-27T12:26:14;0.30;;;0.30;;
18224;SDS011;9237;48.590;8.854;2023-05-27T12:28:42;0.30;;;0.30;;
18224;SDS011;9237;48.590;8.854;2023-05-27T12:31:09;0.40;;;0.40;;
18224;SDS011;9237;48.590;8.854;2023-05-27T12:33:36;0.30;;;0.30;;
18224;SDS011;9237;48.590;8.854;2023-05-27T12:36:03;0.30;;;0.30;;
18224;SDS011;9237;48.590;8.854;2023-05-27T12:38:31;0.30;;;0.30;;
18224;SDS011;9237;48.590;8.854;2023-05-27T12:40:59;0.30;;;0.30;;
18224;SDS011;9237;48.590;8.854;2023-05-27T12:43:26;0.30;;;0.30;;
18224;SDS011;9237;48.590;8.854;2023-05-27T12:45:53;0.30;;;0.30;;
18224;SDS011;9237;48.590;8.854;2023-05-27T12:48:20;0.30;;;0.30;;
18224;SDS011;9237;48.590;8.854;2023-05-27T12:50:47;0.40;;;0.40;;
18224;SDS011;9237;48.590;8.854;2023-05-27T12:53:14;0.30;;;0.30;;
18224;SDS011;9237;48.590;8.854;2023-05-27T12:55:42;0.30;;;0.30;;
18224;SDS011;9237;48.590;8.854;2023-05-27T12:58:11;0.30;;;0.30;;
18224;SDS011;9237;48.590;8.854;2023-05-27T13:00:38;0.30;;;0.30;;
18224;SDS011;9237;48.590;8.854;2023-05-27T13:03:04;0.35;;;0.35;;
18224;SDS011;9237;48.590;8.854;2023-05-27T13:05:31;0.30;;;0.30;;
18224;SDS011;9237;48.590;8.854;2023-05-27T13:07:58;0.30;;;0.30;;
18224;SDS011;9237;48.590;8.854;2023-05-27T13:10:26;0.30;;;0.30;;
18224;SDS011;9237;48.590;8.854;2023-05-27T13:12:54;0.30;;;0.30;;
18224;SDS011;9237;48.590;8.854;2023-05-27T13:15:22;0.30;;;0.30;;
18224;SDS011;9237;48.590;8.854;2023-05-27T13:17:50;0.30;;;0.30;;
18224;SDS011;9237;48.590;8.854;2023-05-27T13:20:18;0.35;;;0.35;;
18224;SDS011;9237;48.590;8.854;2023-05-27T13:22:46;0.20;;;0.20;;
18224;SDS011;9237;48.590;8.854;2023-05-27T13:25:13;0.30;;;0.30;;
18224;SDS011;9237;48.590;8.854;2023-05-27T13:27:40;0.30;;;0.30;;
18224;SDS011;9237;48.590;8.854;2023-05-27T13:30:09;0.30;;;0.30;;
18224;SDS011;9237;48.590;8.854;2023-05-27T13:32:39;0.30;;;0.30;;
18224;SDS011;9237;48.590;8.854;2023-05-27T13:35:08;0.30;;;0.30;;
18224;SDS011;9237;48.590;8.854;2023-05-27T13:37:35;0.30;;;0.30;;
18224;SDS011;9237;48.590;8.854;2023-05-27T13:40:03;0.30;;;0.30;;
18224;SDS011;9237;48.590;8.854;2023-05-27T13:42:30;0.30;;;0.30;;
18224;SDS011;9237;48.590;8.854;2023-05-27T13:44:57;0.30;;;0.30;;
18224;SDS011;9237;48.590;8.854;2023-05-27T13:47:24;0.30;;;0.30;;
18224;SDS011;9237;48.590;8.854;2023-05-27T13:49:52;0.30;;;0.30;;
18224;SDS011;9237;48.590;8.854;2023-05-27T13:52:19;0.30;;;0.30;;
18224;SDS011;9237;48.590;8.854;2023-05-27T13:54:46;0.30;;;0.30;;
18224;SDS011;9237;48.590;8.854;2023-05-27T13:57:13;0.30;;;0.30;;
18224;SDS011;9237;48.590;8.854;2023-05-27T13:59:40;0.30;;;0.30;;
18224;SDS011;9237;48.590;8.854;2023-05-27T14:02:07;0.30;;;0.30;;
18224;SDS011;9237;48.590;8.854;2023-05-27T14:04:34;0.30;;;0.30;;
18224;SDS011;9237;48.590;8.854;2023-05-27T14:07:02;0.30;;;0.30;;
18224;SDS011;9237;48.590;8.854;2023-05-27T14:09:29;0.30;;;0.30;;
18224;SDS011;9237;48.590;8.854;2023-05-27T14:11:56;0.30;;;0.30;;
18224;SDS011;9237;48.590;8.854;2023-05-27T14:14:23;0.30;;;0.30;;
18224;SDS011;9237;48.590;8.854;2023-05-27T14:16:50;0.30;;;0.30;;
18224;SDS011;9237;48.590;8.854;2023-05-27T14:19:17;0.40;;;0.40;;
18224;SDS011;9237;48.590;8.854;2023-05-27T14:21:44;0.30;;;0.30;;
18224;SDS011;9237;48.590;8.854;2023-05-27T14:24:12;0.30;;;0.30;;
18224;SDS011;9237;48.590;8.854;2023-05-27T14:26:40;0.40;;;0.40;;
18224;SDS011;9237;48.590;8.854;2023-05-27T14:29:08;0.40;;;0.40;;
18224;SDS011;9237;48.590;8.854;2023-05-27T14:31:35;0.40;;;0.40;;
18224;SDS011;9237;48.590;8.854;2023-05-27T14:34:02;0.30;;;0.30;;
18224;SDS011;9237;48.590;8.854;2023-05-27T14:36:29;0.40;;;0.40;;
18224;SDS011;9237;48.590;8.854;2023-05-27T14:38:55;0.30;;;0.30;;
18224;SDS011;9237;48.590;8.854;2023-05-27T14:41:24;0.30;;;0.30;;
18224;SDS011;9237;48.590;8.854;2023-05-27T14:43:51;0.30;;;0.30;;
18224;SDS011;9237;48.590;8.854;2023-05-27T14:46:18;0.30;;;0.30;;
18224;SDS011;9237;48.590;8.854;2023-05-27T14:48:45;0.30;;;0.30;;
18224;SDS011;9237;48.590;8.854;2023-05-27T14:51:11;0.30;;;0.30;;
18224;SDS011;9237;48.590;8.854;2023-05-27T14:53:38;0.30;;;0.30;;
18224;SDS011;9237;48.590;8.854;2023-05-27T14:56:05;0.40;;;0.40;;
18224;SDS011;9237;48.590;8.854;2023-05-27T14:58:33;0.38;;;0.38;;
18224;SDS011;9237;48.590;8.854;2023-05-27T15:01:00;0.30;;;0.30;;
18224;SDS011;9237;48.590;8.854;2023-05-27T15:03:27;0.30;;;0.30;;
18224;SDS011;9237;48.590;8.854;2023-05-27T15:05:54;0.30;;;0.30;;